Time;durP1;ratioP1;P1;durP2;ratioP2;P2;SDS_P1;SDS_P2;PMS_P1;PMS_P2;Temp;Humidity;BMP_temperature;BMP_pressure;BME280_temperature;BME280_humidity;BME280_pressure;Samples;Min_cycle;Max_cycle;Signal;HPM_P1;HPM_P2
2022/11/13 00:00:34;;;;;;;27.67;7.93;;;;;;;;;;6229423;23;20214;-89
2022/11/13 00:03:59;;;;;;;42.57;8.33;;;;;;;;;;6229020;23;20167;-89
2022/11/13 00:07:25;;;;;;;40.50;8.77;;;;;;;;;;6229164;23;20645;-93
2022/11/13 00:10:49;;;;;;;50.27;7.97;;;;;;;;;;6227953;23;20175;-89
2022/11/13 00:14:14;;;;;;;25.07;8.30;;;;;;;;;;6225919;23;20194;-89
2022/11/13 00:17:38;;;;;;;38.53;7.30;;;;;;;;;;6227645;23;20175;-89
2022/11/13 00:21:05;;;;;;;46.80;7.00;;;;;;;;;;6227942;23;20179;-91
2022/11/13 00:24:31;;;;;;;59.97;7.13;;;;;;;;;;6227539;23;20166;-89
2022/11/13 00:27:55;;;;;;;43.90;7.13;;;;;;;;;;6229036;23;20213;-90
2022/11/13 00:31:19;;;;;;;45.10;7.23;;;;;;;;;;6229874;23;20211;-91
2022/11/13 00:34:43;;;;;;;50.57;6.73;;;;;;;;;;6228383;23;20199;-90
2022/11/13 00:38:09;;;;;;;37.93;6.53;;;;;;;;;;6232108;23;20179;-90
2022/11/13 00:41:34;;;;;;;34.00;7.07;;;;;;;;;;6229327;23;20191;-89
2022/11/13 00:45:07;;;;;;;83.80;14.90;;;;;;;;;;6227830;23;20216;-88
2022/11/13 00:48:32;;;;;;;94.33;8.57;;;;;;;;;;6228998;23;20171;-91
2022/11/13 00:51:58;;;;;;;42.57;7.50;;;;;;;;;;6227734;23;20243;-92
2022/11/13 00:55:23;;;;;;;53.17;8.00;;;;;;;;;;6228136;23;20171;-89
2022/11/13 00:58:48;;;;;;;79.53;7.90;;;;;;;;;;6230657;23;20168;-92
2022/11/13 01:02:14;;;;;;;51.27;6.63;;;;;;;;;;6233563;23;20606;-91
2022/11/13 01:05:38;;;;;;;48.70;7.73;;;;;;;;;;6229459;23;20171;-89
2022/11/13 01:09:02;;;;;;;99.43;9.10;;;;;;;;;;6230243;23;20168;-89
2022/11/13 01:12:26;;;;;;;37.83;6.57;;;;;;;;;;6230476;23;20171;-90
2022/11/13 01:15:52;;;;;;;72.83;7.47;;;;;;;;;;6230439;23;20179;-90
2022/11/13 01:19:16;;;;;;;44.63;7.27;;;;;;;;;;6229055;23;20203;-88
2022/11/13 01:22:40;;;;;;;63.93;7.77;;;;;;;;;;6230175;23;20172;-91
2022/11/13 01:26:08;;;;;;;105.80;8.00;;;;;;;;;;6229970;23;20191;-90
2022/11/13 01:29:32;;;;;;;90.63;8.33;;;;;;;;;;6228125;23;20190;-91
2022/11/13 01:32:58;;;;;;;55.47;7.37;;;;;;;;;;6230165;23;20275;-90
2022/11/13 01:36:23;;;;;;;36.23;6.40;;;;;;;;;;6230328;23;20232;-90
2022/11/13 01:39:47;;;;;;;21.50;6.43;;;;;;;;;;6228700;23;20175;-88
2022/11/13 01:43:24;;;;;;;40.20;7.00;;;;;;;;;;6230062;23;20674;-87
2022/11/13 01:46:51;;;;;;;36.03;6.50;;;;;;;;;;6228608;23;20332;-89
2022/11/13 01:50:16;;;;;;;85.83;7.20;;;;;;;;;;6228685;23;20210;-89
2022/11/13 01:53:42;;;;;;;34.07;5.50;;;;;;;;;;6229229;23;20172;-90
2022/11/13 01:57:06;;;;;;;26.30;6.13;;;;;;;;;;6230167;23;20170;-90
2022/11/13 02:00:30;;;;;;;23.60;6.30;;;;;;;;;;6227976;23;20183;-88
2022/11/13 02:03:54;;;;;;;19.97;6.23;;;;;;;;;;6227615;23;20159;-90
2022/11/13 02:07:20;;;;;;;22.00;6.23;;;;;;;;;;6228702;23;20219;-88
2022/11/13 02:10:44;;;;;;;32.37;6.10;;;;;;;;;;6225688;23;20226;-89
2022/11/13 02:14:09;;;;;;;15.53;6.37;;;;;;;;;;6225586;23;20172;-92
2022/11/13 02:17:34;;;;;;;30.10;6.30;;;;;;;;;;6226016;23;20217;-91
2022/11/13 02:21:02;;;;;;;20.00;5.13;;;;;;;;;;6225343;23;20167;-90
2022/11/13 02:24:30;;;;;;;15.60;6.27;;;;;;;;;;6224696;23;20217;-88
2022/11/13 02:27:54;;;;;;;17.33;5.83;;;;;;;;;;6225067;23;20218;-90
2022/11/13 02:31:18;;;;;;;14.07;5.17;;;;;;;;;;6225027;23;20273;-90
2022/11/13 02:34:42;;;;;;;13.93;6.27;;;;;;;;;;6223899;23;20191;-92
2022/11/13 02:38:06;;;;;;;13.93;5.73;;;;;;;;;;6224432;23;20164;-88
2022/11/13 02:41:31;;;;;;;22.80;5.50;;;;;;;;;;6225979;23;20171;-90
2022/11/13 02:44:55;;;;;;;15.03;5.47;;;;;;;;;;6224012;23;20537;-89
2022/11/13 02:48:20;;;;;;;13.93;5.50;;;;;;;;;;6225080;23;20219;-88
2022/11/13 02:51:43;;;;;;;35.50;5.67;;;;;;;;;;6226891;23;20187;-90
2022/11/13 02:55:07;;;;;;;18.03;5.47;;;;;;;;;;6225790;23;20172;-89
2022/11/13 02:58:33;;;;;;;19.13;6.07;;;;;;;;;;6226138;23;20190;-87
2022/11/13 03:01:57;;;;;;;20.57;5.70;;;;;;;;;;6225496;23;20228;-89
2022/11/13 03:05:21;;;;;;;49.57;6.93;;;;;;;;;;6224356;23;20167;-88
2022/11/13 03:08:45;;;;;;;38.13;5.97;;;;;;;;;;6225897;23;20202;-87
2022/11/13 03:12:10;;;;;;;56.53;6.43;;;;;;;;;;6226893;23;20214;-90
2022/11/13 03:15:36;;;;;;;25.97;5.10;;;;;;;;;;6227467;23;20209;-90
2022/11/13 03:19:00;;;;;;;19.93;5.13;;;;;;;;;;6228308;23;20167;-90
2022/11/13 03:22:24;;;;;;;31.60;5.67;;;;;;;;;;6228703;23;20220;-88
2022/11/13 03:25:48;;;;;;;13.63;4.53;;;;;;;;;;6227593;23;20175;-90
2022/11/13 03:29:12;;;;;;;24.37;4.60;;;;;;;;;;6227348;23;20172;-91
2022/11/13 03:32:37;;;;;;;9.27;4.37;;;;;;;;;;6228555;23;20521;-89
2022/11/13 03:36:02;;;;;;;11.93;4.90;;;;;;;;;;6225660;23;20226;-93
2022/11/13 03:39:26;;;;;;;22.83;5.10;;;;;;;;;;6227971;23;20170;-88
2022/11/13 03:42:50;;;;;;;33.73;5.33;;;;;;;;;;6226929;23;20618;-91
2022/11/13 03:46:14;;;;;;;12.40;4.87;;;;;;;;;;6225937;23;20238;-91
2022/11/13 03:49:39;;;;;;;42.43;5.40;;;;;;;;;;6227863;23;20203;-92
2022/11/13 03:53:04;;;;;;;32.43;5.00;;;;;;;;;;6227729;23;20171;-86
2022/11/13 03:56:28;;;;;;;9.50;4.60;;;;;;;;;;6228576;23;20183;-90
2022/11/13 03:59:52;;;;;;;22.10;4.80;;;;;;;;;;6225292;23;20171;-89
2022/11/13 04:03:16;;;;;;;33.87;4.77;;;;;;;;;;6227106;23;20589;-90
2022/11/13 04:06:42;;;;;;;9.93;4.67;;;;;;;;;;6226497;23;20267;-86
2022/11/13 04:10:06;;;;;;;14.57;4.77;;;;;;;;;;6225257;23;20627;-91
2022/11/13 04:13:30;;;;;;;14.57;4.47;;;;;;;;;;6226412;23;20171;-88
2022/11/13 04:16:55;;;;;;;19.93;4.90;;;;;;;;;;6227715;23;20244;-92
2022/11/13 04:20:19;;;;;;;96.57;6.17;;;;;;;;;;6226217;23;20171;-89
2022/11/13 04:23:45;;;;;;;30.60;5.00;;;;;;;;;;6225491;23;20171;-88
2022/11/13 04:27:08;;;;;;;26.40;5.17;;;;;;;;;;6226764;23;20195;-88
2022/11/13 04:30:32;;;;;;;30.43;4.83;;;;;;;;;;6226244;23;20221;-92
2022/11/13 04:33:57;;;;;;;40.03;5.67;;;;;;;;;;6224852;23;20190;-87
2022/11/13 04:37:21;;;;;;;43.60;5.27;;;;;;;;;;6225939;23;20183;-87
2022/11/13 04:42:47;;;;;;;12.27;4.37;;;;;;;;;;6225708;23;20662;-92
2022/11/13 04:44:33;;;;;;;40.73;5.80;;;;;;;;;;6224717;23;20218;-90
2022/11/13 04:47:56;;;;;;;50.47;6.10;;;;;;;;;;6225670;23;20250;-87
2022/11/13 04:51:20;;;;;;;44.13;6.07;;;;;;;;;;6224777;23;20167;-89
2022/11/13 04:54:45;;;;;;;41.87;5.97;;;;;;;;;;6225221;23;20183;-88
2022/11/13 04:58:10;;;;;;;27.03;5.17;;;;;;;;;;6225388;23;20218;-88
2022/11/13 05:01:35;;;;;;;14.40;4.60;;;;;;;;;;6225523;23;20171;-91
2022/11/13 05:05:02;;;;;;;27.60;5.47;;;;;;;;;;6225996;23;20219;-90
2022/11/13 05:08:28;;;;;;;36.20;5.20;;;;;;;;;;6224454;23;20237;-91
2022/11/13 05:11:55;;;;;;;16.70;5.30;;;;;;;;;;6226227;23;20226;-89
2022/11/13 05:15:21;;;;;;;33.03;5.30;;;;;;;;;;6225196;23;20218;-90
2022/11/13 05:18:48;;;;;;;72.00;6.00;;;;;;;;;;6226452;23;20220;-90
2022/11/13 05:22:12;;;;;;;33.03;5.43;;;;;;;;;;6227487;23;20172;-90
2022/11/13 05:25:39;;;;;;;13.20;4.90;;;;;;;;;;6227921;23;20635;-88
2022/11/13 05:29:03;;;;;;;42.80;4.97;;;;;;;;;;6227325;23;20215;-87
2022/11/13 05:32:28;;;;;;;14.40;4.20;;;;;;;;;;6225241;23;20194;-90
2022/11/13 05:35:53;;;;;;;11.40;4.47;;;;;;;;;;6224902;23;20195;-89
2022/11/13 05:39:17;;;;;;;9.43;4.23;;;;;;;;;;6225370;23;20198;-88
2022/11/13 05:42:44;;;;;;;6.03;3.70;;;;;;;;;;6227226;23;20182;-89
2022/11/13 05:46:10;;;;;;;39.23;5.23;;;;;;;;;;6228148;23;20172;-86
2022/11/13 05:49:35;;;;;;;9.17;4.87;;;;;;;;;;6227704;23;20176;-88
2022/11/13 05:52:59;;;;;;;9.07;4.33;;;;;;;;;;6228610;23;20234;-91
2022/11/13 05:56:25;;;;;;;9.37;4.30;;;;;;;;;;6228631;23;20167;-90
2022/11/13 05:59:49;;;;;;;18.40;4.87;;;;;;;;;;6228231;23;20172;-90
2022/11/13 06:03:15;;;;;;;15.60;4.80;;;;;;;;;;6227856;23;20190;-90
2022/11/13 06:06:41;;;;;;;11.70;4.57;;;;;;;;;;6229272;23;20190;-90
2022/11/13 06:10:05;;;;;;;6.80;4.20;;;;;;;;;;6227764;23;20171;-89
2022/11/13 06:13:35;;;;;;;11.70;4.20;;;;;;;;;;6227620;23;20172;-90
2022/11/13 06:16:59;;;;;;;13.80;4.67;;;;;;;;;;6228397;23;20631;-89
2022/11/13 06:20:26;;;;;;;11.50;4.73;;;;;;;;;;6227708;23;20545;-89
2022/11/13 06:23:52;;;;;;;8.30;4.60;;;;;;;;;;6229082;23;20211;-90
2022/11/13 06:27:16;;;;;;;18.73;4.77;;;;;;;;;;6229100;23;20528;-88
2022/11/13 06:30:42;;;;;;;12.57;4.13;;;;;;;;;;6228490;23;20171;-87
2022/11/13 06:34:07;;;;;;;18.20;4.80;;;;;;;;;;6226841;23;20168;-88
2022/11/13 06:37:31;;;;;;;22.47;4.93;;;;;;;;;;6228502;23;20163;-88
2022/11/13 06:40:57;;;;;;;42.27;6.33;;;;;;;;;;6227856;23;20171;-91
2022/11/13 06:44:23;;;;;;;9.67;4.07;;;;;;;;;;6225484;23;20175;-88
2022/11/13 06:47:47;;;;;;;8.80;4.40;;;;;;;;;;6227571;23;20191;-89
2022/11/13 06:51:14;;;;;;;7.33;3.20;;;;;;;;;;6227620;23;20194;-91
2022/11/13 06:54:41;;;;;;;15.80;4.20;;;;;;;;;;6227181;23;20167;-89
2022/11/13 06:58:07;;;;;;;16.73;5.10;;;;;;;;;;6227644;23;20171;-90
2022/11/13 07:01:30;;;;;;;25.20;3.97;;;;;;;;;;6229046;23;20224;-88
2022/11/13 07:04:56;;;;;;;9.07;4.30;;;;;;;;;;6228272;23;20552;-88
2022/11/13 07:08:20;;;;;;;8.40;4.50;;;;;;;;;;6228017;23;20563;-87
2022/11/13 07:11:44;;;;;;;13.77;4.23;;;;;;;;;;6229360;23;20760;-88
2022/11/13 07:15:11;;;;;;;13.83;4.20;;;;;;;;;;6226694;23;20183;-88
2022/11/13 07:18:35;;;;;;;7.07;4.30;;;;;;;;;;6227555;23;20224;-88
2022/11/13 07:21:59;;;;;;;17.27;4.73;;;;;;;;;;6228997;23;20661;-87
2022/11/13 07:25:26;;;;;;;9.63;4.07;;;;;;;;;;6228195;23;20554;-90
2022/11/13 07:28:51;;;;;;;9.43;4.83;;;;;;;;;;6228606;23;20190;-88
2022/11/13 07:32:19;;;;;;;10.30;4.87;;;;;;;;;;6227784;23;20213;-88
2022/11/13 07:35:44;;;;;;;11.50;4.60;;;;;;;;;;6228680;23;20313;-89
2022/11/13 07:39:08;;;;;;;14.00;4.77;;;;;;;;;;6226623;23;20171;-87
2022/11/13 07:42:34;;;;;;;13.77;4.63;;;;;;;;;;6226421;23;20235;-89
2022/11/13 07:46:07;;;;;;;20.07;5.40;;;;;;;;;;6227038;23;20195;-88
2022/11/13 07:49:32;;;;;;;16.53;5.00;;;;;;;;;;6228189;23;20191;-91
2022/11/13 07:52:57;;;;;;;8.77;4.97;;;;;;;;;;6228217;23;20339;-89
2022/11/13 07:56:22;;;;;;;10.67;5.20;;;;;;;;;;6228888;23;20191;-88
2022/11/13 07:59:45;;;;;;;13.67;5.67;;;;;;;;;;6228979;23;20175;-90
2022/11/13 08:03:13;;;;;;;13.00;5.37;;;;;;;;;;6227795;23;20629;-88
2022/11/13 08:06:39;;;;;;;31.33;5.77;;;;;;;;;;6228195;23;20258;-88
2022/11/13 08:10:03;;;;;;;16.97;5.80;;;;;;;;;;6228606;23;20167;-88
2022/11/13 08:13:30;;;;;;;9.77;5.40;;;;;;;;;;6226388;23;20481;-90
2022/11/13 08:16:56;;;;;;;9.03;4.77;;;;;;;;;;6229962;23;20175;-88
2022/11/13 08:20:20;;;;;;;9.57;4.97;;;;;;;;;;6228804;23;20163;-86
2022/11/13 08:23:46;;;;;;;14.30;6.00;;;;;;;;;;6230596;23;20156;-90
2022/11/13 08:27:10;;;;;;;14.07;5.57;;;;;;;;;;6229619;23;20179;-89
2022/11/13 08:30:34;;;;;;;10.90;6.63;;;;;;;;;;6228858;23;20171;-88
2022/11/13 08:34:00;;;;;;;12.73;7.03;;;;;;;;;;6229477;23;20191;-88
2022/11/13 08:37:26;;;;;;;16.10;7.50;;;;;;;;;;6232067;23;20175;-90
2022/11/13 08:40:52;;;;;;;32.20;10.13;;;;;;;;;;6230613;23;20186;-92
2022/11/13 08:44:17;;;;;;;25.60;8.30;;;;;;;;;;6233185;23;20166;-89
2022/11/13 08:47:44;;;;;;;18.97;8.37;;;;;;;;;;6232255;23;20266;-88
2022/11/13 08:51:12;;;;;;;23.80;7.77;;;;;;;;;;6234395;23;20267;-89
2022/11/13 08:54:37;;;;;;;23.33;8.47;;;;;;;;;;6233223;23;20190;-89
2022/11/13 08:58:03;;;;;;;20.97;7.50;;;;;;;;;;6233031;23;20243;-88
2022/11/13 09:01:28;;;;;;;18.83;7.83;;;;;;;;;;6228723;23;20175;-91
2022/11/13 09:04:52;;;;;;;15.90;7.37;;;;;;;;;;6232844;23;20175;-89
2022/11/13 09:08:17;;;;;;;18.67;7.77;;;;;;;;;;6228974;23;20206;-91
2022/11/13 09:11:41;;;;;;;15.67;7.93;;;;;;;;;;6229281;23;20175;-88
2022/11/13 09:15:09;;;;;;;23.20;7.80;;;;;;;;;;6228940;23;20172;-90
2022/11/13 09:18:32;;;;;;;21.23;8.37;;;;;;;;;;6230696;23;20182;-87
2022/11/13 09:21:57;;;;;;;21.87;9.17;;;;;;;;;;6229456;23;20171;-90
2022/11/13 09:25:21;;;;;;;25.20;8.97;;;;;;;;;;6227767;23;20167;-92
2022/11/13 09:28:45;;;;;;;18.30;8.90;;;;;;;;;;6228133;23;20199;-90
2022/11/13 09:32:13;;;;;;;19.87;10.00;;;;;;;;;;6233180;23;20214;-91
2022/11/13 09:35:42;;;;;;;18.90;10.10;;;;;;;;;;6236710;23;20170;-89
2022/11/13 09:39:07;;;;;;;22.47;10.80;;;;;;;;;;6233352;23;20159;-90
2022/11/13 09:42:32;;;;;;;24.70;10.77;;;;;;;;;;6230187;23;20218;-92
2022/11/13 09:45:58;;;;;;;22.60;10.60;;;;;;;;;;6229526;23;20249;-88
2022/11/13 09:49:26;;;;;;;21.13;10.17;;;;;;;;;;6230244;23;20202;-88
2022/11/13 09:52:52;;;;;;;21.27;10.37;;;;;;;;;;6228390;23;20187;-89
2022/11/13 09:56:27;;;;;;;20.67;9.70;;;;;;;;;;6229224;23;20194;-90
2022/11/13 09:59:53;;;;;;;25.50;11.07;;;;;;;;;;6228975;23;20175;-87
2022/11/13 10:03:36;;;;;;;22.97;10.07;;;;;;;;;;6228219;23;20191;-91
2022/11/13 14:40:29;;;;;;;38.60;16.85;;;;;;;;;;6164153;22;1688571;-91
2022/11/13 14:43:54;;;;;;;4.85;2.00;;;;;;;;;;6200979;23;20176;-87
2022/11/13 14:47:36;;;;;;;7.60;4.32;;;;;;;;;;6200045;23;20191;-89
2022/11/13 14:51:00;;;;;;;12.13;5.82;;;;;;;;;;6202035;23;20173;-87
2022/11/13 14:54:29;;;;;;;8.32;3.50;;;;;;;;;;6201118;23;20195;-90
2022/11/13 14:57:55;;;;;;;5.88;2.40;;;;;;;;;;6204460;23;20179;-87
2022/11/13 15:01:20;;;;;;;7.80;3.78;;;;;;;;;;6204270;23;20457;-90
2022/11/13 15:04:45;;;;;;;10.07;4.65;;;;;;;;;;6203108;23;20176;-92
2022/11/13 15:08:13;;;;;;;3.65;2.00;;;;;;;;;;6202064;23;20175;-87
2022/11/13 15:11:39;;;;;;;4.80;3.00;;;;;;;;;;6202434;23;20290;-87
2022/11/13 15:15:05;;;;;;;4.18;2.50;;;;;;;;;;6199934;23;20546;-87
2022/11/13 15:18:28;;;;;;;5.38;2.28;;;;;;;;;;6200558;23;20172;-90
2022/11/13 15:21:53;;;;;;;3.92;2.15;;;;;;;;;;6202040;23;20176;-89
2022/11/13 15:25:18;;;;;;;4.22;2.22;;;;;;;;;;6201234;23;20180;-89
2022/11/13 15:28:43;;;;;;;3.63;2.25;;;;;;;;;;6203457;23;20196;-89
2022/11/13 15:32:12;;;;;;;5.10;3.25;;;;;;;;;;6205526;23;20172;-88
2022/11/13 15:35:36;;;;;;;7.00;3.95;;;;;;;;;;6205767;23;20222;-90
2022/11/13 15:39:01;;;;;;;4.65;2.38;;;;;;;;;;6203484;23;20616;-87
2022/11/13 15:42:28;;;;;;;2.92;2.08;;;;;;;;;;6205178;23;20484;-91
2022/11/13 15:45:52;;;;;;;2.90;1.67;;;;;;;;;;6204371;23;20184;-87
2022/11/13 15:49:18;;;;;;;4.80;2.35;;;;;;;;;;6202694;23;20199;-87
2022/11/13 15:52:45;;;;;;;6.63;3.20;;;;;;;;;;6204360;23;20172;-88
2022/11/13 15:56:09;;;;;;;6.25;2.95;;;;;;;;;;6202941;23;20218;-90
2022/11/13 15:59:34;;;;;;;6.70;2.80;;;;;;;;;;6204368;23;20478;-88
2022/11/13 16:02:59;;;;;;;5.30;3.20;;;;;;;;;;6204745;23;20244;-89
2022/11/13 16:06:25;;;;;;;5.63;3.05;;;;;;;;;;6203886;23;20187;-89
2022/11/13 16:09:50;;;;;;;14.80;8.50;;;;;;;;;;6204690;23;20195;-86
2022/11/13 16:13:14;;;;;;;4.97;2.58;;;;;;;;;;6203923;23;20244;-88
2022/11/13 16:16:41;;;;;;;4.32;3.25;;;;;;;;;;6203836;23;20179;-88
2022/11/13 16:20:06;;;;;;;3.95;2.50;;;;;;;;;;6203275;23;20316;-87
2022/11/13 16:23:37;;;;;;;14.32;6.88;;;;;;;;;;6203049;23;20183;-88
2022/11/13 16:27:02;;;;;;;7.32;3.90;;;;;;;;;;6204840;23;20241;-87
2022/11/13 16:30:27;;;;;;;6.82;3.50;;;;;;;;;;6201363;23;20219;-86
2022/11/13 16:33:51;;;;;;;5.45;2.88;;;;;;;;;;6202248;23;20188;-87
2022/11/13 16:37:17;;;;;;;5.15;2.90;;;;;;;;;;6204060;23;20183;-88
2022/11/13 16:40:44;;;;;;;8.73;3.75;;;;;;;;;;6203605;23;20187;-88
2022/11/13 16:44:08;;;;;;;4.32;2.30;;;;;;;;;;6204899;23;20238;-88
2022/11/13 16:47:35;;;;;;;4.00;2.28;;;;;;;;;;6204730;23;20164;-87
2022/11/13 16:50:59;;;;;;;5.05;3.33;;;;;;;;;;6205360;23;20207;-90
2022/11/13 16:54:24;;;;;;;21.35;14.40;;;;;;;;;;6205161;23;20192;-88
2022/11/13 16:57:51;;;;;;;9.15;5.68;;;;;;;;;;6203484;23;20229;-88
2022/11/13 17:01:16;;;;;;;4.45;2.58;;;;;;;;;;6204351;23;20175;-88
2022/11/13 17:04:43;;;;;;;5.18;2.92;;;;;;;;;;6205147;23;20168;-89
2022/11/13 17:08:09;;;;;;;4.68;2.88;;;;;;;;;;6205797;23;20207;-90
2022/11/13 17:11:34;;;;;;;9.75;4.10;;;;;;;;;;6203862;23;20184;-89
2022/11/13 17:15:00;;;;;;;4.25;2.80;;;;;;;;;;6204488;23;20183;-89
2022/11/13 17:18:28;;;;;;;6.13;3.00;;;;;;;;;;6204743;23;20167;-89
2022/11/13 17:21:53;;;;;;;8.05;2.90;;;;;;;;;;6204428;23;20207;-91
2022/11/13 17:25:22;;;;;;;4.40;2.80;;;;;;;;;;6206573;23;20163;-91
2022/11/13 17:28:46;;;;;;;5.15;2.85;;;;;;;;;;6204908;23;20334;-89
2022/11/13 17:32:12;;;;;;;8.93;3.90;;;;;;;;;;6201722;23;20172;-88
2022/11/13 17:35:39;;;;;;;5.15;3.50;;;;;;;;;;6206297;23;20215;-93
2022/11/13 17:39:05;;;;;;;6.10;3.10;;;;;;;;;;6205103;23;20394;-89
2022/11/13 17:42:30;;;;;;;9.18;4.28;;;;;;;;;;6204458;23;20187;-92
2022/11/13 17:46:13;;;;;;;8.20;4.10;;;;;;;;;;6204897;23;20243;-88
2022/11/13 17:49:40;;;;;;;23.23;8.73;;;;;;;;;;6205015;23;20253;-89
2022/11/13 17:53:04;;;;;;;16.98;8.75;;;;;;;;;;6205912;23;20627;-90
2022/11/13 17:56:29;;;;;;;11.98;6.13;;;;;;;;;;6204916;23;20635;-92
2022/11/13 17:59:55;;;;;;;16.50;7.93;;;;;;;;;;6204359;23;20195;-87
2022/11/13 18:03:21;;;;;;;9.30;5.40;;;;;;;;;;6203470;23;20468;-91
2022/11/13 18:06:48;;;;;;;10.23;4.35;;;;;;;;;;6204573;23;20168;-91
2022/11/13 18:10:16;;;;;;;8.50;4.50;;;;;;;;;;6204170;23;20223;-89
2022/11/13 18:13:41;;;;;;;12.55;6.82;;;;;;;;;;6205314;23;20168;-88
2022/11/13 18:17:08;;;;;;;12.50;6.85;;;;;;;;;;6203693;23;20156;-87
2022/11/13 18:20:34;;;;;;;8.73;5.00;;;;;;;;;;6204776;23;20230;-90
2022/11/13 18:24:01;;;;;;;10.10;3.15;;;;;;;;;;6204740;23;20716;-92
2022/11/13 18:27:26;;;;;;;6.25;3.22;;;;;;;;;;6204342;23;20164;-88
2022/11/13 18:30:51;;;;;;;12.65;7.85;;;;;;;;;;6207390;23;20195;-89
2022/11/13 18:34:16;;;;;;;11.00;4.97;;;;;;;;;;6204813;23;20224;-90
2022/11/13 18:37:41;;;;;;;14.13;5.60;;;;;;;;;;6203067;23;20168;-88
2022/11/13 18:41:09;;;;;;;8.95;5.15;;;;;;;;;;6206447;23;20195;-90
2022/11/13 18:44:34;;;;;;;11.95;4.78;;;;;;;;;;6204581;23;20238;-89
2022/11/13 18:48:01;;;;;;;9.63;5.15;;;;;;;;;;6203405;23;20175;-91
2022/11/13 18:51:28;;;;;;;12.00;5.72;;;;;;;;;;6206860;23;20168;-89
2022/11/13 18:54:54;;;;;;;9.15;4.53;;;;;;;;;;6209014;23;20159;-89
2022/11/13 18:58:20;;;;;;;8.68;3.90;;;;;;;;;;6203294;23;20211;-85
2022/11/13 19:05:45;;;;;;;8.07;3.83;;;;;;;;;;6204803;23;20168;-89
2022/11/13 19:09:11;;;;;;;10.60;5.22;;;;;;;;;;6205168;23;20167;-88
2022/11/13 19:12:36;;;;;;;8.77;4.38;;;;;;;;;;6204792;23;20254;-91
2022/11/13 19:16:05;;;;;;;7.18;3.45;;;;;;;;;;6204178;23;20180;-89
2022/11/13 19:19:30;;;;;;;8.38;3.83;;;;;;;;;;6204683;23;20252;-90
2022/11/13 19:22:54;;;;;;;11.18;4.90;;;;;;;;;;6203279;23;20260;-92
2022/11/13 19:26:19;;;;;;;9.45;4.68;;;;;;;;;;6203611;23;20221;-90
2022/11/13 19:29:43;;;;;;;9.30;4.10;;;;;;;;;;6202872;23;20183;-91
2022/11/13 19:33:09;;;;;;;13.52;4.03;;;;;;;;;;6203590;23;20167;-91
2022/11/13 19:36:34;;;;;;;9.10;4.53;;;;;;;;;;6204385;23;20214;-87
2022/11/13 19:39:59;;;;;;;5.88;3.10;;;;;;;;;;6208695;23;20191;-87
2022/11/13 19:43:23;;;;;;;6.32;3.50;;;;;;;;;;6195162;23;20195;-90
2022/11/13 19:46:50;;;;;;;5.90;3.35;;;;;;;;;;6176173;23;20240;-88
2022/11/13 19:50:18;;;;;;;6.53;3.17;;;;;;;;;;6075355;23;20217;-88
2022/11/13 19:53:45;;;;;;;6.35;3.03;;;;;;;;;;5861073;24;20199;-89
2022/11/13 19:57:09;;;;;;;7.45;3.70;;;;;;;;;;5889071;24;20240;-88
2022/11/13 20:00:33;;;;;;;7.75;4.45;;;;;;;;;;5917060;24;20178;-87
2022/11/13 20:03:58;;;;;;;12.02;4.15;;;;;;;;;;5918509;24;20242;-88
2022/11/13 20:07:26;;;;;;;8.38;3.80;;;;;;;;;;5918427;24;20212;-88
2022/11/13 20:10:50;;;;;;;5.25;3.10;;;;;;;;;;5916962;24;20189;-90
2022/11/13 20:14:15;;;;;;;5.60;3.78;;;;;;;;;;5916250;24;20246;-86
2022/11/13 20:17:39;;;;;;;7.72;3.42;;;;;;;;;;5917232;24;20179;-86
2022/11/13 20:21:06;;;;;;;8.57;3.65;;;;;;;;;;5919321;24;20182;-89
2022/11/13 20:24:32;;;;;;;6.90;3.22;;;;;;;;;;5917184;24;20178;-87
2022/11/13 20:27:56;;;;;;;12.98;6.35;;;;;;;;;;5919696;24;20183;-89
2022/11/13 20:31:22;;;;;;;8.57;4.78;;;;;;;;;;5917550;24;20255;-88
2022/11/13 20:34:49;;;;;;;9.73;4.65;;;;;;;;;;5919609;24;20223;-90
2022/11/13 20:38:13;;;;;;;16.42;7.68;;;;;;;;;;5918744;24;20175;-89
2022/11/13 20:41:41;;;;;;;6.82;3.75;;;;;;;;;;5918068;24;20250;-88
2022/11/13 20:45:37;;;;;;;16.95;7.18;;;;;;;;;;5921657;24;20162;-89
2022/11/13 20:49:01;;;;;;;10.13;5.10;;;;;;;;;;5919605;24;20223;-86
2022/11/13 20:52:26;;;;;;;5.85;3.58;;;;;;;;;;5916206;24;20292;-86
2022/11/13 20:55:50;;;;;;;9.82;4.68;;;;;;;;;;5912449;24;20247;-89
2022/11/13 20:59:17;;;;;;;18.17;7.05;;;;;;;;;;5893990;24;20167;-87
2022/11/13 21:02:42;;;;;;;25.17;10.00;;;;;;;;;;5890921;24;20206;-88
2022/11/13 21:06:07;;;;;;;15.02;6.22;;;;;;;;;;5891158;24;20171;-88
2022/11/13 21:09:31;;;;;;;15.27;6.53;;;;;;;;;;5892130;24;20180;-89
2022/11/13 21:12:56;;;;;;;10.77;5.45;;;;;;;;;;5891109;24;20263;-90
2022/11/13 21:16:22;;;;;;;8.93;4.13;;;;;;;;;;5892306;24;20168;-89
2022/11/13 21:19:46;;;;;;;8.50;4.45;;;;;;;;;;5889139;24;20199;-90
2022/11/13 21:23:11;;;;;;;7.63;4.25;;;;;;;;;;5889737;24;20180;-90
2022/11/13 21:26:36;;;;;;;8.35;4.30;;;;;;;;;;5889962;24;20179;-89
2022/11/13 21:30:01;;;;;;;8.13;4.05;;;;;;;;;;5890836;24;20219;-91
2022/11/13 21:33:41;;;;;;;9.45;4.93;;;;;;;;;;5890675;24;20302;-88
2022/11/13 21:37:09;;;;;;;13.80;4.45;;;;;;;;;;5884998;24;20181;-89
2022/11/13 21:40:33;;;;;;;10.80;4.45;;;;;;;;;;5886773;24;20191;-90
2022/11/13 21:43:58;;;;;;;10.23;4.50;;;;;;;;;;5886013;24;20206;-88
2022/11/13 21:47:37;;;;;;;12.90;4.65;;;;;;;;;;5887835;24;20201;-88
2022/11/13 21:51:01;;;;;;;11.43;4.22;;;;;;;;;;5887432;24;20199;-89
2022/11/13 21:54:26;;;;;;;6.07;3.63;;;;;;;;;;5953772;23;20216;-89
2022/11/13 21:57:51;;;;;;;10.60;4.07;;;;;;;;;;6048426;23;20198;-85
2022/11/13 22:01:16;;;;;;;8.93;3.88;;;;;;;;;;6051021;23;20244;-90
2022/11/13 22:04:40;;;;;;;11.32;4.80;;;;;;;;;;6052816;23;20195;-90
2022/11/13 22:08:04;;;;;;;11.18;5.03;;;;;;;;;;6052303;23;20295;-88
2022/11/13 22:11:32;;;;;;;9.77;4.57;;;;;;;;;;6052683;23;20219;-89
2022/11/13 22:14:55;;;;;;;9.63;4.03;;;;;;;;;;6052725;23;20171;-86
2022/11/13 22:18:20;;;;;;;9.45;4.72;;;;;;;;;;6051871;23;20576;-90
2022/11/13 22:21:44;;;;;;;9.02;4.13;;;;;;;;;;6052131;23;20171;-89
2022/11/13 22:25:09;;;;;;;8.77;4.82;;;;;;;;;;6051484;23;20175;-89
2022/11/13 22:28:38;;;;;;;10.38;4.97;;;;;;;;;;6051228;23;20200;-90
2022/11/13 22:32:02;;;;;;;10.82;5.05;;;;;;;;;;6050757;23;20230;-88
2022/11/13 22:35:26;;;;;;;8.63;4.63;;;;;;;;;;6051407;23;20179;-89
2022/11/13 22:38:50;;;;;;;13.43;5.10;;;;;;;;;;6050755;23;20187;-88
2022/11/13 22:42:14;;;;;;;8.75;4.65;;;;;;;;;;6049884;23;20179;-89
2022/11/13 22:45:46;;;;;;;8.77;4.35;;;;;;;;;;6051510;23;20179;-90
2022/11/13 22:49:13;;;;;;;11.68;4.75;;;;;;;;;;6053485;23;20180;-91
2022/11/13 22:52:37;;;;;;;9.95;4.57;;;;;;;;;;6051872;23;20176;-88
2022/11/13 22:56:02;;;;;;;8.45;4.35;;;;;;;;;;6110919;23;20214;-89
2022/11/13 22:59:26;;;;;;;8.35;4.47;;;;;;;;;;6139071;23;20185;-89
2022/11/13 23:02:51;;;;;;;12.32;5.68;;;;;;;;;;6137190;23;20193;-89
2022/11/13 23:06:17;;;;;;;14.90;5.45;;;;;;;;;;6139838;23;20174;-90
2022/11/13 23:09:41;;;;;;;9.68;4.90;;;;;;;;;;6140137;23;20245;-89
2022/11/13 23:13:09;;;;;;;7.65;4.78;;;;;;;;;;6139574;23;20239;-88
2022/11/13 23:16:34;;;;;;;9.55;4.40;;;;;;;;;;6139588;23;20189;-89
2022/11/13 23:19:58;;;;;;;8.30;4.35;;;;;;;;;;6141020;23;20196;-91
2022/11/13 23:23:23;;;;;;;11.02;5.38;;;;;;;;;;6140053;23;20169;-89
2022/11/13 23:26:47;;;;;;;8.88;4.95;;;;;;;;;;6141665;23;20181;-90
2022/11/13 23:30:12;;;;;;;8.07;4.60;;;;;;;;;;6144131;23;20157;-90
2022/11/13 23:33:37;;;;;;;10.90;4.90;;;;;;;;;;6140981;23;20173;-88
2022/11/13 23:37:01;;;;;;;10.20;4.43;;;;;;;;;;6140040;23;20193;-88
2022/11/13 23:40:26;;;;;;;8.20;4.80;;;;;;;;;;6140557;23;20169;-91
2022/11/13 23:43:50;;;;;;;11.35;5.55;;;;;;;;;;6139168;23;20173;-89
2022/11/13 23:47:14;;;;;;;9.23;4.90;;;;;;;;;;6138142;23;20170;-89
2022/11/13 23:50:38;;;;;;;10.35;5.50;;;;;;;;;;6141781;23;20245;-91
2022/11/13 23:54:02;;;;;;;9.32;4.90;;;;;;;;;;6145772;23;20196;-90
2022/11/13 23:57:28;;;;;;;11.32;4.63;;;;;;;;;;6186581;23;20254;-89
